MCO weather

Orlando International Airport
Orlando, Florida, United States

Public forecast

Using degrees Fahrenheit for public forecast. Weather courtesy of forecast.io.

METAR (pilot weather report)

Retrieved 2018/12/13 03:53 UTC (26 minutes ago):

KMCO 130353Z 06004KT 10SM BKN050 12/08 A3024 RMK AO2 SLP239 T01220078

TAF (pilot weather forecast)

Forecast is more than 12 hours old.

Retrieved 2018/12/12 00:30 UTC (1 day ago):

TAF KMCO 122329Z 1300/1406 03004KT P6SM FEW040 BKN300 FM130900 03004KT P6SM BKN040 FM131400 09007KT P6SM BKN040 FM131800 12009KT P6SM BKN045 FM140000 12006KT P6SM SCT040 BKN120